Time;durP1;ratioP1;P1;durP2;ratioP2;P2;SDS_P1;SDS_P2;PMS_P1;PMS_P2;Temp;Humidity;BMP_temperature;BMP_pressure;BME280_temperature;BME280_humidity;BME280_pressure;Samples;Min_cycle;Max_cycle;Signal;HPM_P1;HPM_P2
2023/09/08 00:03:09;;;;;;;20.38;13.30;;;;;;;;;;10534989;28;20266;-71
2023/09/08 00:08:10;;;;;;;17.08;10.38;;;;;;;;;;10511709;28;20025;-70
2023/09/08 00:13:10;;;;;;;12.80;9.30;;;;;;;;;;10491273;28;20012;-69
2023/09/08 00:18:11;;;;;;;20.87;9.87;;;;;;;;;;10492671;28;20315;-70
2023/09/08 00:23:12;;;;;;;12.80;7.95;;;;;;;;;;10520888;28;20008;-69
2023/09/08 00:28:12;;;;;;;16.57;7.70;;;;;;;;;;10534152;28;20008;-69
2023/09/08 00:33:13;;;;;;;13.15;7.40;;;;;;;;;;10533531;28;20046;-71
2023/09/08 00:38:13;;;;;;;12.07;6.72;;;;;;;;;;10510413;28;20032;-70
2023/09/08 00:43:14;;;;;;;8.45;5.78;;;;;;;;;;10505328;28;20035;-70
2023/09/08 00:48:14;;;;;;;18.33;6.77;;;;;;;;;;10505509;28;20017;-69
2023/09/08 00:53:14;;;;;;;7.68;5.40;;;;;;;;;;10505078;28;20418;-69
2023/09/08 00:58:15;;;;;;;8.40;5.57;;;;;;;;;;10504694;28;20020;-69
2023/09/08 01:03:15;;;;;;;11.30;5.55;;;;;;;;;;10504535;28;20021;-69
2023/09/08 01:08:16;;;;;;;8.20;5.13;;;;;;;;;;10504410;28;20017;-69
2023/09/08 01:13:16;;;;;;;10.00;5.50;;;;;;;;;;10504389;28;20016;-69
2023/09/08 01:18:16;;;;;;;9.90;5.35;;;;;;;;;;10504112;28;20047;-69
2023/09/08 01:23:17;;;;;;;8.25;4.60;;;;;;;;;;10503865;28;20054;-69
2023/09/08 01:28:18;;;;;;;12.43;4.73;;;;;;;;;;10503837;28;20013;-69
2023/09/08 01:33:18;;;;;;;8.15;5.05;;;;;;;;;;10503040;28;20070;-70
2023/09/08 01:38:18;;;;;;;9.23;6.10;;;;;;;;;;10502762;28;20017;-69
2023/09/08 01:43:19;;;;;;;9.73;4.97;;;;;;;;;;10502503;28;20238;-69
2023/09/08 01:48:19;;;;;;;10.23;6.53;;;;;;;;;;10501721;28;20082;-69
2023/09/08 01:53:19;;;;;;;8.67;5.83;;;;;;;;;;10502714;28;20088;-69
2023/09/08 01:58:48;;;;;;;8.05;5.55;;;;;;;;;;10502321;28;20043;-69
2023/09/08 02:03:48;;;;;;;11.05;5.75;;;;;;;;;;10502605;28;20016;-70
2023/09/08 02:08:49;;;;;;;11.90;5.75;;;;;;;;;;10468919;28;20043;-70
2023/09/08 02:13:49;;;;;;;10.25;6.07;;;;;;;;;;10471215;28;20020;-70
2023/09/08 02:18:50;;;;;;;8.35;5.68;;;;;;;;;;10501434;28;20062;-68
2023/09/08 02:23:50;;;;;;;14.10;7.20;;;;;;;;;;10490493;28;20036;-69
2023/09/08 02:28:50;;;;;;;13.00;6.50;;;;;;;;;;10501186;28;20218;-69
2023/09/08 02:33:51;;;;;;;16.25;7.40;;;;;;;;;;10500754;28;20396;-69
2023/09/08 02:38:51;;;;;;;9.70;5.90;;;;;;;;;;10500960;28;20023;-69
2023/09/08 02:43:51;;;;;;;14.10;7.07;;;;;;;;;;10465081;28;20024;-69
2023/09/08 02:48:52;;;;;;;12.00;7.68;;;;;;;;;;10494379;28;20432;-70
2023/09/08 02:53:53;;;;;;;13.13;7.53;;;;;;;;;;10492134;28;20084;-70
2023/09/08 02:58:53;;;;;;;9.43;6.70;;;;;;;;;;10458904;28;20025;-69
2023/09/08 03:03:53;;;;;;;10.63;7.63;;;;;;;;;;10496453;28;20032;-70
2023/09/08 03:08:53;;;;;;;13.80;7.43;;;;;;;;;;10500060;28;20017;-70
2023/09/08 03:13:54;;;;;;;10.05;7.60;;;;;;;;;;10471920;28;20238;-69
2023/09/08 03:18:54;;;;;;;15.47;8.00;;;;;;;;;;10479061;28;20016;-69
2023/09/08 03:23:54;;;;;;;16.27;7.57;;;;;;;;;;10478763;28;20088;-69
2023/09/08 03:28:55;;;;;;;15.07;8.40;;;;;;;;;;10495948;28;20020;-69
2023/09/08 03:33:55;;;;;;;16.98;8.75;;;;;;;;;;10475180;28;20517;-71
2023/09/08 03:38:57;;;;;;;15.90;8.50;;;;;;;;;;10481689;28;20062;-68
2023/09/08 03:43:58;;;;;;;13.15;9.07;;;;;;;;;;10498425;28;20043;-69
2023/09/08 03:49:00;;;;;;;11.77;8.57;;;;;;;;;;10498292;28;20528;-69
2023/09/08 03:54:00;;;;;;;14.38;8.90;;;;;;;;;;10491712;28;20028;-70
2023/09/08 03:59:01;;;;;;;16.08;8.25;;;;;;;;;;10491171;28;20020;-70
2023/09/08 04:04:01;;;;;;;16.00;9.00;;;;;;;;;;10497872;28;20033;-71
2023/09/08 04:09:01;;;;;;;13.90;8.10;;;;;;;;;;10498716;28;20226;-70
2023/09/08 04:14:02;;;;;;;13.65;9.88;;;;;;;;;;10505765;28;20294;-71
2023/09/08 04:19:02;;;;;;;20.45;9.93;;;;;;;;;;10506012;28;20033;-71
2023/09/08 04:24:02;;;;;;;19.55;9.98;;;;;;;;;;10505962;28;20425;-70
2023/09/08 04:29:03;;;;;;;18.27;9.27;;;;;;;;;;10504244;28;20044;-69
2023/09/08 04:34:03;;;;;;;13.10;9.57;;;;;;;;;;10505650;28;20400;-70
2023/09/08 04:39:03;;;;;;;16.17;9.30;;;;;;;;;;10476349;28;20226;-71
2023/09/08 04:44:04;;;;;;;21.87;8.80;;;;;;;;;;10498103;28;20047;-70
2023/09/08 04:49:04;;;;;;;17.40;9.75;;;;;;;;;;10475137;28;20169;-70
2023/09/08 04:54:05;;;;;;;17.00;9.00;;;;;;;;;;10483427;28;20135;-76
2023/09/08 04:59:05;;;;;;;15.57;8.17;;;;;;;;;;10442330;28;20092;-75
2023/09/08 05:04:05;;;;;;;17.70;9.07;;;;;;;;;;10440321;28;20135;-74
2023/09/08 05:09:15;;;;;;;10.23;6.85;;;;;;;;;;10445793;28;20017;-84
2023/09/08 05:14:15;;;;;;;13.00;6.85;;;;;;;;;;10443808;28;20218;-73
2023/09/08 05:19:15;;;;;;;10.38;7.20;;;;;;;;;;10441445;28;20057;-81
2023/09/08 05:24:15;;;;;;;9.52;5.97;;;;;;;;;;10439186;28;20087;-78
2023/09/08 05:29:16;;;;;;;11.73;6.53;;;;;;;;;;10443153;28;20528;-72
2023/09/08 05:34:16;;;;;;;17.03;7.60;;;;;;;;;;10443660;28;20082;-70
2023/09/08 05:39:18;;;;;;;10.63;6.07;;;;;;;;;;10442771;28;20039;-70
2023/09/08 05:44:20;;;;;;;10.40;6.15;;;;;;;;;;10443176;28;20315;-70
2023/09/08 05:49:20;;;;;;;10.73;5.30;;;;;;;;;;10438947;28;20044;-71
2023/09/08 05:54:21;;;;;;;16.70;5.57;;;;;;;;;;10438506;28;21000;-71
2023/09/08 05:59:21;;;;;;;9.57;5.55;;;;;;;;;;10437536;28;20110;-71
2023/09/08 06:04:21;;;;;;;6.17;4.57;;;;;;;;;;10441495;28;20338;-71
2023/09/08 06:09:22;;;;;;;8.93;4.53;;;;;;;;;;10439901;28;20434;-70
2023/09/08 06:14:22;;;;;;;10.35;4.72;;;;;;;;;;10441909;28;20031;-71
2023/09/08 06:19:22;;;;;;;9.88;4.53;;;;;;;;;;10440730;28;20213;-70
2023/09/08 06:24:22;;;;;;;7.60;4.50;;;;;;;;;;10437842;28;20024;-70
2023/09/08 06:29:23;;;;;;;8.98;3.78;;;;;;;;;;10437256;28;20092;-70
2023/09/08 06:34:23;;;;;;;4.32;3.17;;;;;;;;;;10437932;28;20060;-71
2023/09/08 06:39:25;;;;;;;8.38;3.97;;;;;;;;;;10441152;28;20028;-71
2023/09/08 06:44:25;;;;;;;6.30;3.50;;;;;;;;;;10437506;28;20326;-70
2023/09/08 06:49:26;;;;;;;4.43;2.63;;;;;;;;;;10440443;28;20084;-70
2023/09/08 06:54:26;;;;;;;7.72;3.53;;;;;;;;;;10439397;28;20046;-71
2023/09/08 06:59:26;;;;;;;7.35;3.58;;;;;;;;;;10440322;28;20025;-71
2023/09/08 07:04:26;;;;;;;7.68;3.13;;;;;;;;;;10439438;28;20036;-71
2023/09/08 07:09:27;;;;;;;7.65;3.10;;;;;;;;;;10439413;28;20013;-71
2023/09/08 07:14:27;;;;;;;6.88;2.78;;;;;;;;;;10440288;28;20017;-72
2023/09/08 07:19:27;;;;;;;5.20;2.70;;;;;;;;;;10438654;28;20361;-72
2023/09/08 07:24:27;;;;;;;4.95;2.60;;;;;;;;;;10440262;28;20230;-72
2023/09/08 07:29:28;;;;;;;6.07;2.97;;;;;;;;;;10439374;28;20021;-72
2023/09/08 07:34:28;;;;;;;4.40;2.47;;;;;;;;;;10438140;28;20045;-72
2023/09/08 07:39:29;;;;;;;6.03;2.50;;;;;;;;;;10439326;28;20017;-71
2023/09/08 07:44:29;;;;;;;5.07;2.45;;;;;;;;;;10437783;28;20048;-77
2023/09/08 07:49:29;;;;;;;4.32;2.58;;;;;;;;;;10450959;28;20056;-78
2023/09/08 07:54:30;;;;;;;4.47;2.80;;;;;;;;;;10451729;28;20025;-72
2023/09/08 07:59:30;;;;;;;6.80;3.50;;;;;;;;;;10454456;28;20262;-87
2023/09/08 08:04:31;;;;;;;5.38;2.22;;;;;;;;;;10448345;28;20024;-84
2023/09/08 08:09:31;;;;;;;2.60;2.15;;;;;;;;;;10447198;28;20062;-79
2023/09/08 08:14:31;;;;;;;3.83;1.95;;;;;;;;;;10452734;28;20031;-82
2023/09/08 08:19:31;;;;;;;6.57;2.38;;;;;;;;;;10452555;28;20307;-82
2023/09/08 08:24:32;;;;;;;3.40;2.15;;;;;;;;;;10451795;28;20017;-72
2023/09/08 08:29:32;;;;;;;2.85;1.98;;;;;;;;;;10453160;28;20056;-72
2023/09/08 08:34:32;;;;;;;4.47;2.28;;;;;;;;;;10452496;28;20076;-73
2023/09/08 08:39:33;;;;;;;3.63;2.30;;;;;;;;;;10451640;28;20223;-71
2023/09/08 08:44:33;;;;;;;3.75;1.75;;;;;;;;;;10452211;28;20036;-72
2023/09/08 08:49:33;;;;;;;4.23;2.00;;;;;;;;;;10452492;28;20255;-72
2023/09/08 08:54:35;;;;;;;9.25;2.88;;;;;;;;;;10451959;28;20032;-72
2023/09/08 08:59:35;;;;;;;4.63;2.40;;;;;;;;;;10451015;28;20047;-72
2023/09/08 09:04:36;;;;;;;5.85;2.08;;;;;;;;;;10449173;28;20557;-72
2023/09/08 09:09:36;;;;;;;7.07;2.92;;;;;;;;;;10446029;28;20013;-72
2023/09/08 09:14:37;;;;;;;5.75;2.75;;;;;;;;;;10448316;28;20622;-72
2023/09/08 09:19:37;;;;;;;5.22;2.42;;;;;;;;;;10449456;28;20303;-72
2023/09/08 09:24:43;;;;;;;2.88;2.50;;;;;;;;;;10449507;28;20070;-71
2023/09/08 09:29:45;;;;;;;8.05;3.08;;;;;;;;;;10450921;28;20234;-71
2023/09/08 09:34:50;;;;;;;3.92;2.65;;;;;;;;;;10448482;28;20051;-71
2023/09/08 09:39:50;;;;;;;6.85;2.28;;;;;;;;;;10450375;28;20024;-71
2023/09/08 09:44:53;;;;;;;4.55;2.40;;;;;;;;;;10448860;28;20258;-71
2023/09/08 09:49:54;;;;;;;6.85;2.10;;;;;;;;;;10448965;28;20208;-71
2023/09/08 09:54:56;;;;;;;6.13;3.23;;;;;;;;;;10448198;28;20021;-72
2023/09/08 09:59:58;;;;;;;5.78;2.35;;;;;;;;;;10447747;28;20051;-71
2023/09/08 10:05:09;;;;;;;3.05;2.00;;;;;;;;;;10447231;28;20028;-70
2023/09/08 10:10:10;;;;;;;6.82;2.45;;;;;;;;;;10447342;28;20252;-71
2023/09/08 10:15:10;;;;;;;4.85;2.90;;;;;;;;;;10448700;28;20017;-70
2023/09/08 10:20:11;;;;;;;3.97;2.07;;;;;;;;;;10447737;28;20058;-71
2023/09/08 10:25:12;;;;;;;2.80;2.20;;;;;;;;;;10442263;28;20076;-70
2023/09/08 10:30:13;;;;;;;3.60;2.55;;;;;;;;;;10445628;28;20095;-72
2023/09/08 10:35:14;;;;;;;7.72;2.47;;;;;;;;;;10445012;28;20364;-70
2023/09/08 10:40:21;;;;;;;13.03;2.33;;;;;;;;;;10444719;28;20052;-70
2023/09/08 10:45:21;;;;;;;6.45;2.38;;;;;;;;;;10448004;28;20358;-70
2023/09/08 10:50:32;;;;;;;9.52;2.47;;;;;;;;;;10447838;28;20468;-70
2023/09/08 10:55:43;;;;;;;3.08;2.20;;;;;;;;;;10447763;28;20017;-70
2023/09/08 11:00:44;;;;;;;6.68;2.50;;;;;;;;;;10444168;28;20048;-71
2023/09/08 11:05:44;;;;;;;9.40;3.13;;;;;;;;;;10446318;28;20025;-70
2023/09/08 11:10:45;;;;;;;4.25;2.72;;;;;;;;;;10443505;28;20342;-71
2023/09/08 11:15:45;;;;;;;6.05;2.47;;;;;;;;;;10442957;28;20033;-70
2023/09/08 11:20:51;;;;;;;4.78;2.83;;;;;;;;;;10444355;28;20029;-80
2023/09/08 11:25:52;;;;;;;10.75;3.30;;;;;;;;;;10445936;28;20032;-77
2023/09/08 11:30:53;;;;;;;4.43;3.03;;;;;;;;;;10436746;28;20311;-72
2023/09/08 11:35:54;;;;;;;4.28;3.00;;;;;;;;;;10440068;28;20053;-72
2023/09/08 11:40:57;;;;;;;5.28;2.40;;;;;;;;;;10442101;28;20024;-77
2023/09/08 11:45:57;;;;;;;10.05;3.30;;;;;;;;;;10439862;28;20151;-78
2023/09/08 11:50:58;;;;;;;11.93;3.53;;;;;;;;;;10439413;28;20096;-69
2023/09/08 11:55:59;;;;;;;4.05;2.90;;;;;;;;;;10441193;28;20368;-69
2023/09/08 12:00:59;;;;;;;4.30;3.00;;;;;;;;;;10440696;28;20117;-69
2023/09/08 12:06:01;;;;;;;7.77;3.63;;;;;;;;;;10438539;28;20033;-68
2023/09/08 12:11:02;;;;;;;6.82;3.17;;;;;;;;;;10438374;28;20222;-69
2023/09/08 12:21:21;;;;;;;8.20;3.47;;;;;;;;;;10438506;28;20036;-68
2023/09/08 12:26:24;;;;;;;5.70;3.63;;;;;;;;;;10440796;28;20045;-71
2023/09/08 12:31:24;;;;;;;4.70;2.75;;;;;;;;;;10439887;28;20337;-83
2023/09/08 12:36:25;;;;;;;10.33;3.73;;;;;;;;;;10441243;28;20049;-78
2023/09/08 12:41:25;;;;;;;6.22;3.28;;;;;;;;;;10445491;28;20025;-72
2023/09/08 12:46:25;;;;;;;7.38;3.67;;;;;;;;;;10448428;28;20075;-80
2023/09/08 12:51:25;;;;;;;6.37;3.20;;;;;;;;;;10464208;28;20021;-79
2023/09/08 12:56:26;;;;;;;6.95;3.30;;;;;;;;;;10448476;28;20032;-74
2023/09/08 13:01:26;;;;;;;6.38;3.72;;;;;;;;;;10446716;28;20263;-74
2023/09/08 13:06:27;;;;;;;5.50;3.33;;;;;;;;;;10446168;28;20147;-74
2023/09/08 13:11:27;;;;;;;5.82;3.30;;;;;;;;;;10446004;28;20096;-74
2023/09/08 13:16:28;;;;;;;8.75;3.10;;;;;;;;;;10446116;28;20031;-76
2023/09/08 13:21:28;;;;;;;8.05;3.30;;;;;;;;;;10444793;28;20014;-81
2023/09/08 13:26:28;;;;;;;7.60;3.25;;;;;;;;;;10444511;28;20029;-80
2023/09/08 13:31:28;;;;;;;13.52;3.55;;;;;;;;;;10445089;28;20025;-76
2023/09/08 13:36:29;;;;;;;7.38;3.58;;;;;;;;;;10446001;28;20052;-82
2023/09/08 13:41:48;;;;;;;11.05;4.10;;;;;;;;;;10444910;28;20173;-80
2023/09/08 13:46:55;;;;;;;4.72;3.30;;;;;;;;;;10444224;28;20332;-79
2023/09/08 13:51:55;;;;;;;4.43;3.03;;;;;;;;;;10448310;28;20033;-79
2023/09/08 13:57:02;;;;;;;4.40;3.20;;;;;;;;;;10448431;28;20352;-79
2023/09/08 14:02:03;;;;;;;4.82;3.80;;;;;;;;;;10444459;28;20025;-79
2023/09/08 14:07:03;;;;;;;6.13;4.07;;;;;;;;;;10442011;28;20056;-83
2023/09/08 14:12:04;;;;;;;6.18;3.25;;;;;;;;;;10440952;28;20062;-75
2023/09/08 14:17:04;;;;;;;7.95;3.72;;;;;;;;;;10438052;28;20086;-82
2023/09/08 14:22:05;;;;;;;8.88;3.42;;;;;;;;;;10446990;28;21048;-78
2023/09/08 14:27:05;;;;;;;6.38;3.15;;;;;;;;;;10442712;28;20032;-76
2023/09/08 14:32:05;;;;;;;5.07;2.72;;;;;;;;;;10443519;28;20370;-70
2023/09/08 14:37:07;;;;;;;3.77;3.10;;;;;;;;;;10441540;28;20057;-73
2023/09/08 14:42:07;;;;;;;6.07;3.20;;;;;;;;;;10440858;28;20032;-72
2023/09/08 14:47:08;;;;;;;5.07;3.53;;;;;;;;;;10443098;28;20023;-82
2023/09/08 14:52:09;;;;;;;6.47;3.10;;;;;;;;;;10443140;28;21095;-77
2023/09/08 14:57:09;;;;;;;6.93;3.55;;;;;;;;;;10442296;28;20024;-76
2023/09/08 15:02:09;;;;;;;7.18;2.90;;;;;;;;;;10445836;28;20052;-74
2023/09/08 15:07:09;;;;;;;7.33;3.53;;;;;;;;;;10445285;28;20099;-73
2023/09/08 15:12:10;;;;;;;6.20;3.92;;;;;;;;;;10447039;28;20082;-71
2023/09/08 15:17:11;;;;;;;4.60;3.03;;;;;;;;;;10447386;28;20282;-75
2023/09/08 15:22:12;;;;;;;5.90;3.28;;;;;;;;;;10443865;28;20250;-75
2023/09/08 15:27:13;;;;;;;7.90;3.65;;;;;;;;;;10443338;28;20437;-75
2023/09/08 15:32:13;;;;;;;4.27;3.00;;;;;;;;;;10445610;28;20017;-76
2023/09/08 15:37:13;;;;;;;8.00;3.47;;;;;;;;;;10446792;28;20091;-74
2023/09/08 15:42:13;;;;;;;5.50;3.33;;;;;;;;;;10443956;28;20024;-73
2023/09/08 15:47:14;;;;;;;10.38;3.63;;;;;;;;;;10444223;28;20035;-73
2023/09/08 15:52:14;;;;;;;7.45;3.50;;;;;;;;;;10444950;28;20017;-73
2023/09/08 15:57:15;;;;;;;5.30;3.73;;;;;;;;;;10443581;28;20021;-73
2023/09/08 16:02:15;;;;;;;5.40;3.25;;;;;;;;;;10440674;28;20325;-73
2023/09/08 16:07:15;;;;;;;6.63;3.50;;;;;;;;;;10444253;28;20021;-74
2023/09/08 16:12:15;;;;;;;12.43;4.28;;;;;;;;;;10453143;28;20198;-74
2023/09/08 16:17:16;;;;;;;6.47;3.15;;;;;;;;;;10454390;28;20297;-73
2023/09/08 16:22:16;;;;;;;6.13;3.30;;;;;;;;;;10454140;28;20035;-73
2023/09/08 16:27:17;;;;;;;6.75;3.60;;;;;;;;;;10452814;28;20017;-73
2023/09/08 16:32:17;;;;;;;9.48;3.40;;;;;;;;;;10452197;28;20021;-73
2023/09/08 16:37:17;;;;;;;7.17;3.43;;;;;;;;;;10452534;28;20342;-73
2023/09/08 16:42:17;;;;;;;7.60;3.60;;;;;;;;;;10454089;28;20017;-73
2023/09/08 16:47:19;;;;;;;7.78;3.60;;;;;;;;;;10452574;28;20092;-72
2023/09/08 16:52:23;;;;;;;6.90;3.17;;;;;;;;;;10453190;28;20009;-73
2023/09/08 16:57:23;;;;;;;6.93;3.17;;;;;;;;;;10452507;28;20036;-73
2023/09/08 17:02:26;;;;;;;5.25;3.30;;;;;;;;;;10453220;28;20024;-73
2023/09/08 17:07:26;;;;;;;5.05;3.53;;;;;;;;;;10455915;28;20080;-73
2023/09/08 17:12:27;;;;;;;7.85;3.60;;;;;;;;;;10452378;28;20234;-73
2023/09/08 17:17:27;;;;;;;12.82;3.40;;;;;;;;;;10453496;28;20032;-72
2023/09/08 17:22:27;;;;;;;8.93;3.95;;;;;;;;;;10451296;28;20092;-72
2023/09/08 17:27:28;;;;;;;11.30;5.05;;;;;;;;;;10453314;28;20051;-73
2023/09/08 17:32:28;;;;;;;6.97;4.17;;;;;;;;;;10450175;28;20203;-73
2023/09/08 17:37:28;;;;;;;7.35;4.18;;;;;;;;;;10451046;28;20041;-73
2023/09/08 17:42:28;;;;;;;10.93;5.05;;;;;;;;;;10451676;28;20215;-72
2023/09/08 17:47:29;;;;;;;11.23;5.30;;;;;;;;;;10451944;28;20025;-72
2023/09/08 17:52:29;;;;;;;10.68;4.80;;;;;;;;;;10452256;28;20025;-72
2023/09/08 17:57:30;;;;;;;10.63;5.28;;;;;;;;;;10450915;28;20067;-73
2023/09/08 18:02:30;;;;;;;7.65;4.40;;;;;;;;;;10448103;28;20264;-73
2023/09/08 18:07:31;;;;;;;7.22;4.47;;;;;;;;;;10453149;28;20074;-72
2023/09/08 18:12:32;;;;;;;11.43;4.80;;;;;;;;;;10450322;28;20075;-72
2023/09/08 18:17:32;;;;;;;10.70;5.32;;;;;;;;;;10450144;28;20005;-73
2023/09/08 18:22:32;;;;;;;10.07;6.90;;;;;;;;;;10449832;28;20021;-72
2023/09/08 18:27:32;;;;;;;10.45;6.13;;;;;;;;;;10447927;28;20040;-77
2023/09/08 18:32:33;;;;;;;13.10;5.30;;;;;;;;;;10448267;28;20085;-78
2023/09/08 18:37:34;;;;;;;18.40;5.78;;;;;;;;;;10439900;28;20243;-74
2023/09/08 18:42:34;;;;;;;8.55;4.88;;;;;;;;;;10437685;28;20233;-84
2023/09/08 18:47:34;;;;;;;7.45;4.45;;;;;;;;;;10441445;28;20025;-81
2023/09/08 18:52:34;;;;;;;12.85;5.22;;;;;;;;;;10440448;28;20016;-81
2023/09/08 18:57:35;;;;;;;7.50;4.78;;;;;;;;;;10440147;28;20028;-91
2023/09/08 19:02:35;;;;;;;9.45;5.32;;;;;;;;;;10444194;28;20025;-75
2023/09/08 19:07:36;;;;;;;9.75;4.88;;;;;;;;;;10442094;28;20092;-71
2023/09/08 19:12:36;;;;;;;13.32;5.38;;;;;;;;;;10443071;28;20048;-73
2023/09/08 19:17:36;;;;;;;11.47;5.07;;;;;;;;;;10442223;28;20052;-74
2023/09/08 19:22:37;;;;;;;6.90;4.63;;;;;;;;;;10438192;28;20528;-73
2023/09/08 19:27:37;;;;;;;9.98;4.93;;;;;;;;;;10438662;28;20219;-71
2023/09/08 19:32:38;;;;;;;6.30;5.00;;;;;;;;;;10441672;28;20029;-76
2023/09/08 19:37:39;;;;;;;8.13;4.28;;;;;;;;;;10437492;28;20106;-73
2023/09/08 19:42:39;;;;;;;7.00;4.30;;;;;;;;;;10444886;28;20361;-75
2023/09/08 19:47:39;;;;;;;8.27;4.10;;;;;;;;;;10446225;28;20092;-73
2023/09/08 19:52:40;;;;;;;10.35;4.38;;;;;;;;;;10446250;28;20016;-74
2023/09/08 19:57:40;;;;;;;9.77;4.35;;;;;;;;;;10444120;28;20222;-76
2023/09/08 20:02:41;;;;;;;9.80;4.70;;;;;;;;;;10450774;28;20028;-80
2023/09/08 20:07:43;;;;;;;6.50;4.57;;;;;;;;;;10447811;28;20037;-74
2023/09/08 20:12:43;;;;;;;5.78;4.30;;;;;;;;;;10450564;28;20025;-76
2023/09/08 20:17:45;;;;;;;8.85;4.45;;;;;;;;;;10450330;28;20078;-74
2023/09/08 20:22:45;;;;;;;8.05;4.18;;;;;;;;;;10448615;28;20188;-84
2023/09/08 20:27:46;;;;;;;6.07;3.90;;;;;;;;;;10444676;28;20144;-80
2023/09/08 20:32:46;;;;;;;7.57;3.60;;;;;;;;;;10446773;28;20025;-73
2023/09/08 20:37:47;;;;;;;6.10;4.25;;;;;;;;;;10447767;28;20045;-72
2023/09/08 20:42:47;;;;;;;12.13;4.10;;;;;;;;;;10452155;28;20315;-72
2023/09/08 20:47:50;;;;;;;10.52;4.35;;;;;;;;;;10453435;28;20066;-72
2023/09/08 20:52:50;;;;;;;7.47;3.90;;;;;;;;;;10450696;28;20028;-73
2023/09/08 20:57:51;;;;;;;4.72;3.28;;;;;;;;;;10451370;28;20049;-73
2023/09/08 21:02:53;;;;;;;11.25;4.53;;;;;;;;;;10449851;28;20092;-73
2023/09/08 21:07:54;;;;;;;5.75;4.40;;;;;;;;;;10452474;28;20186;-73
2023/09/08 21:12:55;;;;;;;9.82;5.18;;;;;;;;;;10449570;28;20021;-73
2023/09/08 21:17:55;;;;;;;7.72;4.75;;;;;;;;;;10451173;28;20088;-73
2023/09/08 21:23:01;;;;;;;7.05;4.85;;;;;;;;;;10450982;28;20033;-73
2023/09/08 21:28:03;;;;;;;7.47;4.55;;;;;;;;;;10447550;28;21263;-73
2023/09/08 21:33:03;;;;;;;6.70;4.50;;;;;;;;;;10449552;28;20075;-72
2023/09/08 21:38:04;;;;;;;7.73;4.47;;;;;;;;;;10451774;28;20381;-72
2023/09/08 21:43:04;;;;;;;7.93;3.95;;;;;;;;;;10447345;28;20036;-71
2023/09/08 21:48:04;;;;;;;6.57;4.80;;;;;;;;;;10448977;28;20389;-73
2023/09/08 21:53:05;;;;;;;8.77;4.32;;;;;;;;;;10449422;28;20100;-73
2023/09/08 21:58:05;;;;;;;6.82;4.80;;;;;;;;;;10448601;28;20025;-73
2023/09/08 22:03:06;;;;;;;9.35;4.40;;;;;;;;;;10449691;28;20052;-72
2023/09/08 22:08:06;;;;;;;11.23;4.68;;;;;;;;;;10446945;28;20610;-73
2023/09/08 22:13:07;;;;;;;8.93;5.13;;;;;;;;;;10449295;28;20012;-72
2023/09/08 22:18:07;;;;;;;8.55;5.07;;;;;;;;;;10448321;28;20025;-73
2023/09/08 22:23:08;;;;;;;11.98;5.03;;;;;;;;;;10448420;28;20295;-72
2023/09/08 22:28:08;;;;;;;9.23;5.05;;;;;;;;;;10446991;28;20243;-72
2023/09/08 22:33:08;;;;;;;10.30;5.68;;;;;;;;;;10449151;28;20086;-72
2023/09/08 22:38:09;;;;;;;9.53;4.90;;;;;;;;;;10448638;28;20356;-72
2023/09/08 22:43:09;;;;;;;9.70;4.93;;;;;;;;;;10448054;28;20100;-72
2023/09/08 22:48:09;;;;;;;10.40;4.80;;;;;;;;;;10446555;28;20020;-72
2023/09/08 22:53:10;;;;;;;7.35;4.90;;;;;;;;;;10447576;28;20005;-72
2023/09/08 22:58:10;;;;;;;6.88;4.50;;;;;;;;;;10447723;28;20012;-72
2023/09/08 23:03:10;;;;;;;6.78;4.53;;;;;;;;;;10447502;28;20031;-71
2023/09/08 23:08:11;;;;;;;10.75;4.43;;;;;;;;;;10447421;28;21082;-72
2023/09/08 23:13:11;;;;;;;11.85;4.60;;;;;;;;;;10444633;28;20560;-73
2023/09/08 23:18:12;;;;;;;10.32;5.10;;;;;;;;;;10443842;28;20096;-72
2023/09/08 23:23:12;;;;;;;10.70;4.65;;;;;;;;;;10444986;28;20029;-72
2023/09/08 23:28:12;;;;;;;8.87;4.60;;;;;;;;;;10446657;28;20025;-73
2023/09/08 23:33:12;;;;;;;6.60;4.65;;;;;;;;;;10447577;28;20029;-72
2023/09/08 23:38:14;;;;;;;9.90;4.47;;;;;;;;;;10445356;28;20053;-72
2023/09/08 23:43:14;;;;;;;9.50;5.00;;;;;;;;;;10444984;28;20131;-71
2023/09/08 23:48:15;;;;;;;10.03;4.97;;;;;;;;;;10446176;28;20310;-71
2023/09/08 23:53:15;;;;;;;13.30;6.15;;;;;;;;;;10445355;28;20063;-71
2023/09/08 23:58:16;;;;;;;7.68;5.35;;;;;;;;;;10444156;28;20107;-71
